OMAL/AAN METAR and TAF weather

Enter ICAO airport designator
Station Type Date Time Source
OMAL METAR 2019/06/19 01:00 UTC NOAA

OMAL 190100Z 17004KT 8000 NSC 29/22 Q0999 NOSIG


Station Type Date Time Source
OMAL Decoded METAR 2019/06/19 01:00 UTC NOAA

Al Ain International Airport, United Arab Emirates (OMAL) 24-16N 055-36E 262M
Jun 18, 2019 - 09:00 PM EDT / 2019.06.19 0100 UTC
Wind: from the S (170 degrees) at 5 MPH (4 KT):0
Visibility: 4 mile(s):0
Temperature: 84 F (29 C)
Dew Point: 71 F (22 C)
Relative Humidity: 65%
Pressure (altimeter): 29.50 in. Hg (0999 hPa)
ob: OMAL 190100Z 17004KT 8000 NSC 29/22 Q0999 NOSIG
cycle: 1

Station Type Date Time Source
OMAL TAF 2019/06/18 18:05 UTC NOAA

TAF OMAL 181700Z 1818/2000 29008KT 8000 NSC
BECMG 1820/1822 20005KT PROB30
TEMPO 1900/1903 3000 BR BKN005
BECMG 1905/1907 29015KT PROB30
TEMPO 1910/1914 30018G30KT 3000 BLDU
BECMG 1919/1921 19006KT

Example: see airport list